CYYCCYQF

Guest
Details From CYYC - CALGARY INTL
To CYQF - RED DEER REGIONAL
Flight Number -
Tags generated
Created
Modified
Stats Distance 64 nm / 119 km
Max Altitude 600 ft / 183 m
Waypoints 3
Social Downloads 3
Likes 0
Share VATSIM

Download

Looking for another format? Having issues loading an existing format? Contact us
Advertisement - Login to hide

Notes

Basic altitude profile: - Ascent Rate: 2500ft/min - Ascent Speed: 250kts - Cruise Altitude: 35000ft - Cruise Speed: 420kts - Descent Rate: 1500ft/min - Descent Speed: 250kts Options: - Use NATs: yes - Use PACOTS: yes - Use low airways: yes - Use high airways: yes

Route

CYYC YQF CYQF

ID Type Via Altitude Latitude Longitude Leg Dist Tot Dist Heading (true) Name
O CYYC APT - 0 ft / 0 m 51.11320˚ -114.02004˚ - 0 nm - CALGARY INTL
YQF NDB - 600 ft / 183 m 52.12831˚ -113.89939˚ 61 nm 61 nm 4° / 4° RED DEER NDB
O CYQF APT - 0 ft / 0 m 52.18257˚ -113.89369˚ 3 nm 64 nm 4° / 4° RED DEER REGIONAL

Altitude Profile

Advertisement - Login to hide

CYYC

Details ICAO CYYC (YYC)
Name CALGARY INTL
Region Canada
Timezone America/Edmonton (UTC-6.0)
Stats Elevation 3,557 ft / 1,084 m (AMSL)
Location 51.113197° -114.020044°
Runways 3
Magnetic Variation 14.025° E

METAR

CYYC 271300Z 34006KT 30SM FEW250 11/05 A3007 RMK CI1 SLP183 DENSITY ALT 3800FT

Decode

TAF

TAF CYYC 271138Z 2712/2812 34010KT P6SM FEW250 BECMG 2717/2719 16012KT FM280700 23006KT P6SM SKC RMK NXT FCST BY 271500Z

Decode

Departure Runways

ID Width Length Bearing (true) Bearing (mag) Surface Threshold Offset Overrun Length
07 144 ft / 44 m 6,561 ft / 2,000 m 90.76° 76.73° Asphalt 0 ft / 0 m 0 ft / 0 m
10 210 ft / 64 m 8,433 ft / 2,570 m 119.00° 104.97° Asphalt 0 ft / 0 m 0 ft / 0 m
16 200 ft / 61 m 12,703 ft / 3,872 m 179.00° 164.97° Asphalt 0 ft / 0 m 0 ft / 0 m
25 144 ft / 44 m 6,561 ft / 2,000 m 270.78° 256.75° Asphalt 0 ft / 0 m 0 ft / 0 m
28 210 ft / 64 m 8,433 ft / 2,570 m 299.02° 284.99° Asphalt 0 ft / 0 m 121 ft / 37 m
34 200 ft / 61 m 12,703 ft / 3,872 m 359.00° 344.97° Asphalt 0 ft / 0 m 0 ft / 0 m

CYQF

Details ICAO CYQF (YQF)
Name RED DEER REGIONAL
Region Canada
Timezone America/Edmonton (UTC-6.0)
Stats Elevation 2,968 ft / 905 m (AMSL)
Location 52.182568° -113.893686°
Runways 2
Magnetic Variation 14.185° E

METAR

CYQF 271300Z 30004KT 15SM FEW140 BKN250 08/06 A3005 RMK AC1CI4 SLP186

Decode

TAF

TAF CYQF 271138Z 2712/2724 VRB03KT P6SM FEW140 BECMG 2717/2719 15010KT RMK NXT FCST BY 271800Z

Decode

Destination Runways

ID Width Length Bearing (true) Bearing (mag) Surface Threshold Offset Overrun Length
11 100 ft / 30 m 3,480 ft / 1,061 m 129.84° 115.66° Asphalt 0 ft / 0 m 0 ft / 0 m
16 98 ft / 30 m 5,575 ft / 1,699 m 180.00° 165.82° Asphalt 0 ft / 0 m 0 ft / 0 m
29 100 ft / 30 m 3,480 ft / 1,061 m 309.85° 295.67° Asphalt 0 ft / 0 m 0 ft / 0 m
34 98 ft / 30 m 5,575 ft / 1,699 m 0.00° 345.82° Asphalt 0 ft / 0 m 0 ft / 0 m

Popular Alternatives